SAN weather

San Diego International Airport
San Diego, California, United States

Public forecast

Using degrees Fahrenheit for public forecast. Weather courtesy of forecast.io.

METAR (pilot weather report)

Retrieved 2019/02/18 17:51 UTC (14 minutes ago):

KSAN 181751Z 15003KT 10SM FEW040 SCT055 12/01 A3010 RMK AO2 SLP192 T01220006 10122 20089 51013 $

TAF (pilot weather forecast)

Retrieved 2019/02/18 18:34 UTC (0 seconds ago):

TAF KSAN 181732Z 1818/1924 VRB04KT P6SM SCT060 FM182000 29008KT P6SM SCT050 FM190200 VRB04KT P6SM SCT050 FM192000 28008KT P6SM FEW250